sensor_id;sensor_type;location;lat;lon;timestamp;P1;durP1;ratioP1;P2;durP2;ratioP2
27517;SDS011;14962;52.482;13.142;2022-07-23T00:00:54;9.75;;;5.95;;
27517;SDS011;14962;52.482;13.142;2022-07-23T00:03:20;9.25;;;4.75;;
27517;SDS011;14962;52.482;13.142;2022-07-23T00:05:46;8.30;;;5.28;;
27517;SDS011;14962;52.482;13.142;2022-07-23T00:08:12;8.40;;;4.93;;
27517;SDS011;14962;52.482;13.142;2022-07-23T00:10:38;7.20;;;4.75;;
27517;SDS011;14962;52.482;13.142;2022-07-23T00:13:04;8.93;;;5.30;;
27517;SDS011;14962;52.482;13.142;2022-07-23T00:15:30;7.80;;;4.70;;
27517;SDS011;14962;52.482;13.142;2022-07-23T00:17:56;6.90;;;5.53;;
27517;SDS011;14962;52.482;13.142;2022-07-23T00:20:22;7.15;;;4.93;;
27517;SDS011;14962;52.482;13.142;2022-07-23T00:22:49;8.65;;;5.22;;
27517;SDS011;14962;52.482;13.142;2022-07-23T00:25:15;8.00;;;5.00;;
27517;SDS011;14962;52.482;13.142;2022-07-23T00:27:41;7.97;;;5.00;;
27517;SDS011;14962;52.482;13.142;2022-07-23T00:30:07;8.23;;;5.43;;
27517;SDS011;14962;52.482;13.142;2022-07-23T00:32:44;8.80;;;4.60;;
27517;SDS011;14962;52.482;13.142;2022-07-23T00:35:10;5.88;;;4.65;;
27517;SDS011;14962;52.482;13.142;2022-07-23T00:37:36;7.82;;;5.03;;
27517;SDS011;14962;52.482;13.142;2022-07-23T00:40:02;6.22;;;5.00;;
27517;SDS011;14962;52.482;13.142;2022-07-23T00:42:30;6.95;;;4.85;;
27517;SDS011;14962;52.482;13.142;2022-07-23T00:44:56;7.75;;;5.50;;
27517;SDS011;14962;52.482;13.142;2022-07-23T00:47:22;8.98;;;5.63;;
27517;SDS011;14962;52.482;13.142;2022-07-23T00:49:48;7.63;;;4.85;;
27517;SDS011;14962;52.482;13.142;2022-07-23T00:52:14;6.57;;;5.18;;
27517;SDS011;14962;52.482;13.142;2022-07-23T00:54:40;8.05;;;4.70;;
27517;SDS011;14962;52.482;13.142;2022-07-23T00:57:06;7.78;;;5.22;;
27517;SDS011;14962;52.482;13.142;2022-07-23T00:59:33;8.27;;;5.07;;
27517;SDS011;14962;52.482;13.142;2022-07-23T01:01:58;6.75;;;5.57;;
27517;SDS011;14962;52.482;13.142;2022-07-23T01:04:24;6.45;;;5.40;;
27517;SDS011;14962;52.482;13.142;2022-07-23T01:06:50;8.70;;;5.43;;
27517;SDS011;14962;52.482;13.142;2022-07-23T01:09:17;5.47;;;4.78;;
27517;SDS011;14962;52.482;13.142;2022-07-23T01:11:43;7.85;;;5.50;;
27517;SDS011;14962;52.482;13.142;2022-07-23T01:14:09;7.93;;;5.28;;
27517;SDS011;14962;52.482;13.142;2022-07-23T01:16:35;6.32;;;4.63;;
27517;SDS011;14962;52.482;13.142;2022-07-23T01:19:02;8.20;;;5.60;;
27517;SDS011;14962;52.482;13.142;2022-07-23T01:21:31;8.23;;;5.45;;
27517;SDS011;14962;52.482;13.142;2022-07-23T01:23:57;6.57;;;5.07;;
27517;SDS011;14962;52.482;13.142;2022-07-23T01:26:23;11.02;;;5.78;;
27517;SDS011;14962;52.482;13.142;2022-07-23T01:28:49;8.68;;;5.45;;
27517;SDS011;14962;52.482;13.142;2022-07-23T01:31:15;7.15;;;5.03;;
27517;SDS011;14962;52.482;13.142;2022-07-23T01:33:42;11.48;;;5.63;;
27517;SDS011;14962;52.482;13.142;2022-07-23T01:36:08;8.25;;;5.30;;
27517;SDS011;14962;52.482;13.142;2022-07-23T01:38:34;9.90;;;5.25;;
27517;SDS011;14962;52.482;13.142;2022-07-23T01:41:00;7.40;;;5.35;;
27517;SDS011;14962;52.482;13.142;2022-07-23T01:43:26;6.90;;;5.20;;
27517;SDS011;14962;52.482;13.142;2022-07-23T01:45:52;9.82;;;5.53;;
27517;SDS011;14962;52.482;13.142;2022-07-23T01:48:18;8.90;;;6.05;;
27517;SDS011;14962;52.482;13.142;2022-07-23T01:50:45;7.35;;;5.15;;
27517;SDS011;14962;52.482;13.142;2022-07-23T01:53:11;8.00;;;6.32;;
27517;SDS011;14962;52.482;13.142;2022-07-23T01:55:37;9.02;;;5.53;;
27517;SDS011;14962;52.482;13.142;2022-07-23T01:58:03;7.43;;;5.47;;
27517;SDS011;14962;52.482;13.142;2022-07-23T02:00:30;9.57;;;5.05;;
27517;SDS011;14962;52.482;13.142;2022-07-23T02:02:56;7.68;;;5.85;;
27517;SDS011;14962;52.482;13.142;2022-07-23T02:05:23;9.10;;;5.75;;
27517;SDS011;14962;52.482;13.142;2022-07-23T02:07:49;6.95;;;5.43;;
27517;SDS011;14962;52.482;13.142;2022-07-23T02:10:15;9.52;;;5.80;;
27517;SDS011;14962;52.482;13.142;2022-07-23T02:12:41;7.95;;;4.72;;
27517;SDS011;14962;52.482;13.142;2022-07-23T02:15:07;9.68;;;5.43;;
27517;SDS011;14962;52.482;13.142;2022-07-23T02:17:33;6.75;;;4.85;;
27517;SDS011;14962;52.482;13.142;2022-07-23T02:19:59;8.15;;;5.10;;
27517;SDS011;14962;52.482;13.142;2022-07-23T02:22:25;9.38;;;5.60;;
27517;SDS011;14962;52.482;13.142;2022-07-23T02:24:51;8.23;;;5.28;;
27517;SDS011;14962;52.482;13.142;2022-07-23T02:27:17;9.50;;;5.75;;
27517;SDS011;14962;52.482;13.142;2022-07-23T02:29:43;9.93;;;5.78;;
27517;SDS011;14962;52.482;13.142;2022-07-23T02:32:09;8.00;;;5.30;;
27517;SDS011;14962;52.482;13.142;2022-07-23T02:34:35;7.30;;;5.00;;
27517;SDS011;14962;52.482;13.142;2022-07-23T02:37:01;9.13;;;5.55;;
27517;SDS011;14962;52.482;13.142;2022-07-23T02:39:27;10.48;;;5.90;;
27517;SDS011;14962;52.482;13.142;2022-07-23T02:41:53;9.23;;;5.30;;
27517;SDS011;14962;52.482;13.142;2022-07-23T02:44:19;7.82;;;4.97;;
27517;SDS011;14962;52.482;13.142;2022-07-23T02:46:45;8.80;;;4.93;;
27517;SDS011;14962;52.482;13.142;2022-07-23T02:49:11;8.48;;;5.10;;
27517;SDS011;14962;52.482;13.142;2022-07-23T02:51:37;8.65;;;4.40;;
27517;SDS011;14962;52.482;13.142;2022-07-23T02:54:03;9.23;;;4.95;;
27517;SDS011;14962;52.482;13.142;2022-07-23T02:56:29;6.22;;;4.53;;
27517;SDS011;14962;52.482;13.142;2022-07-23T02:58:55;9.30;;;5.25;;
27517;SDS011;14962;52.482;13.142;2022-07-23T03:01:21;7.25;;;4.45;;
27517;SDS011;14962;52.482;13.142;2022-07-23T03:03:47;9.13;;;4.88;;
27517;SDS011;14962;52.482;13.142;2022-07-23T03:06:13;8.48;;;4.60;;
27517;SDS011;14962;52.482;13.142;2022-07-23T03:08:39;7.40;;;4.30;;
27517;SDS011;14962;52.482;13.142;2022-07-23T03:11:05;8.48;;;4.32;;
27517;SDS011;14962;52.482;13.142;2022-07-23T03:13:36;6.68;;;4.45;;
27517;SDS011;14962;52.482;13.142;2022-07-23T03:16:02;7.82;;;4.28;;
27517;SDS011;14962;52.482;13.142;2022-07-23T03:18:29;9.75;;;4.70;;
27517;SDS011;14962;52.482;13.142;2022-07-23T03:20:55;8.82;;;4.47;;
27517;SDS011;14962;52.482;13.142;2022-07-23T03:23:21;7.95;;;4.60;;
27517;SDS011;14962;52.482;13.142;2022-07-23T03:25:47;8.27;;;5.72;;
27517;SDS011;14962;52.482;13.142;2022-07-23T03:28:13;6.68;;;4.68;;
27517;SDS011;14962;52.482;13.142;2022-07-23T03:30:40;8.18;;;3.88;;
27517;SDS011;14962;52.482;13.142;2022-07-23T03:33:06;6.35;;;3.60;;
27517;SDS011;14962;52.482;13.142;2022-07-23T03:35:32;8.70;;;3.50;;
27517;SDS011;14962;52.482;13.142;2022-07-23T03:37:58;8.38;;;3.83;;
27517;SDS011;14962;52.482;13.142;2022-07-23T03:40:24;7.78;;;4.10;;
27517;SDS011;14962;52.482;13.142;2022-07-23T03:42:50;9.30;;;4.30;;
27517;SDS011;14962;52.482;13.142;2022-07-23T03:45:16;5.18;;;3.60;;
27517;SDS011;14962;52.482;13.142;2022-07-23T03:47:42;8.00;;;3.53;;
27517;SDS011;14962;52.482;13.142;2022-07-23T03:50:09;6.40;;;3.05;;
27517;SDS011;14962;52.482;13.142;2022-07-23T03:52:35;6.88;;;3.20;;
27517;SDS011;14962;52.482;13.142;2022-07-23T03:55:02;7.30;;;3.72;;
27517;SDS011;14962;52.482;13.142;2022-07-23T03:57:28;4.93;;;3.30;;
27517;SDS011;14962;52.482;13.142;2022-07-23T03:59:54;8.90;;;3.42;;
27517;SDS011;14962;52.482;13.142;2022-07-23T04:02:20;7.60;;;3.35;;
27517;SDS011;14962;52.482;13.142;2022-07-23T04:04:46;6.75;;;2.80;;
27517;SDS011;14962;52.482;13.142;2022-07-23T04:07:12;7.80;;;3.35;;
27517;SDS011;14962;52.482;13.142;2022-07-23T04:09:38;6.57;;;3.40;;
27517;SDS011;14962;52.482;13.142;2022-07-23T04:12:07;7.60;;;3.85;;
27517;SDS011;14962;52.482;13.142;2022-07-23T04:14:33;7.93;;;3.03;;
27517;SDS011;14962;52.482;13.142;2022-07-23T04:16:59;6.32;;;3.40;;
27517;SDS011;14962;52.482;13.142;2022-07-23T04:19:25;4.82;;;3.17;;
27517;SDS011;14962;52.482;13.142;2022-07-23T04:21:51;5.55;;;3.42;;
27517;SDS011;14962;52.482;13.142;2022-07-23T04:24:17;11.30;;;4.00;;
27517;SDS011;14962;52.482;13.142;2022-07-23T04:26:44;11.18;;;3.78;;
27517;SDS011;14962;52.482;13.142;2022-07-23T04:29:10;11.70;;;4.22;;
27517;SDS011;14962;52.482;13.142;2022-07-23T04:31:36;9.63;;;4.38;;
27517;SDS011;14962;52.482;13.142;2022-07-23T04:34:02;10.40;;;4.72;;
27517;SDS011;14962;52.482;13.142;2022-07-23T04:36:28;6.82;;;4.20;;
27517;SDS011;14962;52.482;13.142;2022-07-23T04:38:54;5.93;;;3.63;;
27517;SDS011;14962;52.482;13.142;2022-07-23T04:41:20;6.43;;;3.88;;
27517;SDS011;14962;52.482;13.142;2022-07-23T04:43:46;7.47;;;3.72;;
27517;SDS011;14962;52.482;13.142;2022-07-23T04:46:12;6.85;;;3.67;;
27517;SDS011;14962;52.482;13.142;2022-07-23T04:48:39;6.32;;;3.40;;
27517;SDS011;14962;52.482;13.142;2022-07-23T04:51:07;9.68;;;4.40;;
27517;SDS011;14962;52.482;13.142;2022-07-23T04:53:33;10.23;;;4.00;;
27517;SDS011;14962;52.482;13.142;2022-07-23T04:55:59;9.02;;;4.28;;
27517;SDS011;14962;52.482;13.142;2022-07-23T04:58:25;18.20;;;4.68;;
27517;SDS011;14962;52.482;13.142;2022-07-23T05:00:51;9.25;;;3.88;;
27517;SDS011;14962;52.482;13.142;2022-07-23T05:03:17;7.35;;;3.67;;
27517;SDS011;14962;52.482;13.142;2022-07-23T05:05:43;9.32;;;4.03;;
27517;SDS011;14962;52.482;13.142;2022-07-23T05:08:09;6.07;;;3.40;;
27517;SDS011;14962;52.482;13.142;2022-07-23T05:10:35;8.63;;;3.92;;
27517;SDS011;14962;52.482;13.142;2022-07-23T05:13:01;9.43;;;4.13;;
27517;SDS011;14962;52.482;13.142;2022-07-23T05:15:27;8.15;;;4.07;;
27517;SDS011;14962;52.482;13.142;2022-07-23T05:17:53;5.78;;;4.00;;
27517;SDS011;14962;52.482;13.142;2022-07-23T05:20:19;15.32;;;5.28;;
27517;SDS011;14962;52.482;13.142;2022-07-23T05:22:45;6.82;;;3.65;;
27517;SDS011;14962;52.482;13.142;2022-07-23T05:25:10;10.35;;;4.32;;
27517;SDS011;14962;52.482;13.142;2022-07-23T05:27:36;8.35;;;4.05;;
27517;SDS011;14962;52.482;13.142;2022-07-23T05:30:03;9.75;;;3.97;;
27517;SDS011;14962;52.482;13.142;2022-07-23T05:32:30;7.57;;;3.42;;
27517;SDS011;14962;52.482;13.142;2022-07-23T05:34:56;10.68;;;4.35;;
27517;SDS011;14962;52.482;13.142;2022-07-23T05:37:22;9.02;;;3.47;;
27517;SDS011;14962;52.482;13.142;2022-07-23T05:39:48;6.38;;;3.95;;
27517;SDS011;14962;52.482;13.142;2022-07-23T05:42:14;7.50;;;3.97;;
27517;SDS011;14962;52.482;13.142;2022-07-23T05:44:40;6.50;;;3.40;;
27517;SDS011;14962;52.482;13.142;2022-07-23T05:47:06;9.50;;;3.85;;
27517;SDS011;14962;52.482;13.142;2022-07-23T05:49:32;5.30;;;3.13;;
27517;SDS011;14962;52.482;13.142;2022-07-23T05:51:58;7.60;;;3.45;;
27517;SDS011;14962;52.482;13.142;2022-07-23T05:54:24;8.10;;;3.72;;
27517;SDS011;14962;52.482;13.142;2022-07-23T05:56:50;7.22;;;3.58;;
27517;SDS011;14962;52.482;13.142;2022-07-23T05:59:17;7.72;;;3.45;;
27517;SDS011;14962;52.482;13.142;2022-07-23T06:01:43;8.68;;;3.67;;
27517;SDS011;14962;52.482;13.142;2022-07-23T06:04:09;9.98;;;3.85;;
27517;SDS011;14962;52.482;13.142;2022-07-23T06:06:35;8.00;;;3.70;;
27517;SDS011;14962;52.482;13.142;2022-07-23T06:09:01;8.23;;;3.50;;
27517;SDS011;14962;52.482;13.142;2022-07-23T06:11:27;8.30;;;3.70;;
27517;SDS011;14962;52.482;13.142;2022-07-23T06:13:53;10.55;;;3.72;;
27517;SDS011;14962;52.482;13.142;2022-07-23T06:16:19;7.28;;;3.10;;
27517;SDS011;14962;52.482;13.142;2022-07-23T06:18:45;8.48;;;3.45;;
27517;SDS011;14962;52.482;13.142;2022-07-23T06:21:11;7.30;;;3.40;;
27517;SDS011;14962;52.482;13.142;2022-07-23T06:23:37;4.28;;;2.75;;
27517;SDS011;14962;52.482;13.142;2022-07-23T06:26:03;7.65;;;3.75;;
27517;SDS011;14962;52.482;13.142;2022-07-23T06:28:29;6.93;;;3.67;;
27517;SDS011;14962;52.482;13.142;2022-07-23T06:30:55;9.93;;;3.83;;
27517;SDS011;14962;52.482;13.142;2022-07-23T06:33:21;7.47;;;3.30;;
27517;SDS011;14962;52.482;13.142;2022-07-23T06:35:47;6.28;;;3.33;;
27517;SDS011;14962;52.482;13.142;2022-07-23T06:38:13;7.13;;;3.88;;
27517;SDS011;14962;52.482;13.142;2022-07-23T06:40:39;8.98;;;3.30;;
27517;SDS011;14962;52.482;13.142;2022-07-23T06:43:05;6.18;;;3.17;;
27517;SDS011;14962;52.482;13.142;2022-07-23T06:45:30;9.00;;;3.92;;
27517;SDS011;14962;52.482;13.142;2022-07-23T06:47:56;6.57;;;3.10;;
27517;SDS011;14962;52.482;13.142;2022-07-23T06:50:22;6.72;;;3.22;;
27517;SDS011;14962;52.482;13.142;2022-07-23T06:52:48;6.43;;;4.20;;
27517;SDS011;14962;52.482;13.142;2022-07-23T06:55:15;9.82;;;4.45;;
27517;SDS011;14962;52.482;13.142;2022-07-23T06:57:41;8.60;;;4.20;;
27517;SDS011;14962;52.482;13.142;2022-07-23T07:00:07;6.50;;;4.18;;
27517;SDS011;14962;52.482;13.142;2022-07-23T07:02:33;7.05;;;3.30;;
27517;SDS011;14962;52.482;13.142;2022-07-23T07:04:59;12.23;;;4.15;;
27517;SDS011;14962;52.482;13.142;2022-07-23T07:07:25;9.23;;;3.83;;
27517;SDS011;14962;52.482;13.142;2022-07-23T07:09:51;8.57;;;3.63;;
27517;SDS011;14962;52.482;13.142;2022-07-23T07:12:17;6.28;;;3.50;;
27517;SDS011;14962;52.482;13.142;2022-07-23T07:14:43;4.45;;;3.00;;
27517;SDS011;14962;52.482;13.142;2022-07-23T07:17:09;9.60;;;3.95;;
27517;SDS011;14962;52.482;13.142;2022-07-23T07:19:38;7.13;;;2.97;;
27517;SDS011;14962;52.482;13.142;2022-07-23T07:22:04;5.70;;;3.30;;
27517;SDS011;14962;52.482;13.142;2022-07-23T07:24:30;11.10;;;3.40;;
27517;SDS011;14962;52.482;13.142;2022-07-23T07:26:56;10.48;;;4.25;;
27517;SDS011;14962;52.482;13.142;2022-07-23T07:29:22;6.60;;;3.58;;
27517;SDS011;14962;52.482;13.142;2022-07-23T07:31:48;7.13;;;3.70;;
27517;SDS011;14962;52.482;13.142;2022-07-23T07:34:14;8.52;;;3.88;;
27517;SDS011;14962;52.482;13.142;2022-07-23T07:36:40;10.25;;;3.75;;
27517;SDS011;14962;52.482;13.142;2022-07-23T07:39:08;4.47;;;3.38;;
27517;SDS011;14962;52.482;13.142;2022-07-23T07:41:35;5.68;;;3.65;;
27517;SDS011;14962;52.482;13.142;2022-07-23T07:44:01;9.90;;;4.38;;
27517;SDS011;14962;52.482;13.142;2022-07-23T07:46:27;8.23;;;3.85;;
27517;SDS011;14962;52.482;13.142;2022-07-23T07:48:53;10.20;;;4.00;;
27517;SDS011;14962;52.482;13.142;2022-07-23T07:51:19;6.20;;;3.28;;
27517;SDS011;14962;52.482;13.142;2022-07-23T07:53:45;7.30;;;3.85;;
27517;SDS011;14962;52.482;13.142;2022-07-23T07:56:11;7.07;;;4.00;;
27517;SDS011;14962;52.482;13.142;2022-07-23T07:58:37;8.40;;;3.92;;
27517;SDS011;14962;52.482;13.142;2022-07-23T08:01:03;8.95;;;3.35;;
27517;SDS011;14962;52.482;13.142;2022-07-23T08:03:29;9.55;;;3.83;;
27517;SDS011;14962;52.482;13.142;2022-07-23T08:05:55;7.80;;;3.67;;
27517;SDS011;14962;52.482;13.142;2022-07-23T08:08:21;8.38;;;4.35;;
27517;SDS011;14962;52.482;13.142;2022-07-23T08:10:47;8.05;;;3.85;;
27517;SDS011;14962;52.482;13.142;2022-07-23T08:13:14;10.27;;;4.03;;
27517;SDS011;14962;52.482;13.142;2022-07-23T08:15:40;9.18;;;4.10;;
27517;SDS011;14962;52.482;13.142;2022-07-23T08:18:07;10.15;;;4.32;;
27517;SDS011;14962;52.482;13.142;2022-07-23T08:20:33;8.55;;;4.07;;
27517;SDS011;14962;52.482;13.142;2022-07-23T08:23:00;11.57;;;3.40;;
27517;SDS011;14962;52.482;13.142;2022-07-23T08:25:27;7.07;;;3.28;;
27517;SDS011;14962;52.482;13.142;2022-07-23T08:27:53;9.82;;;3.97;;
27517;SDS011;14962;52.482;13.142;2022-07-23T08:30:19;7.22;;;3.38;;
27517;SDS011;14962;52.482;13.142;2022-07-23T08:32:52;5.93;;;3.22;;
27517;SDS011;14962;52.482;13.142;2022-07-23T08:37:44;9.70;;;4.10;;
27517;SDS011;14962;52.482;13.142;2022-07-23T08:40:11;6.45;;;3.20;;
27517;SDS011;14962;52.482;13.142;2022-07-23T08:42:37;5.43;;;3.17;;
27517;SDS011;14962;52.482;13.142;2022-07-23T08:45:03;5.32;;;3.03;;
27517;SDS011;14962;52.482;13.142;2022-07-23T08:47:29;5.85;;;2.80;;
27517;SDS011;14962;52.482;13.142;2022-07-23T08:49:58;9.70;;;3.25;;
27517;SDS011;14962;52.482;13.142;2022-07-23T08:52:24;11.00;;;2.50;;
27517;SDS011;14962;52.482;13.142;2022-07-23T08:54:50;5.28;;;2.85;;
27517;SDS011;14962;52.482;13.142;2022-07-23T08:57:17;7.82;;;2.50;;
27517;SDS011;14962;52.482;13.142;2022-07-23T08:59:44;7.60;;;2.78;;
27517;SDS011;14962;52.482;13.142;2022-07-23T09:02:10;6.55;;;2.33;;
27517;SDS011;14962;52.482;13.142;2022-07-23T09:04:36;5.32;;;2.08;;
27517;SDS011;14962;52.482;13.142;2022-07-23T09:07:02;3.67;;;2.30;;
27517;SDS011;14962;52.482;13.142;2022-07-23T09:09:28;5.75;;;2.30;;
27517;SDS011;14962;52.482;13.142;2022-07-23T09:12:08;5.57;;;2.70;;
27517;SDS011;14962;52.482;13.142;2022-07-23T09:14:35;5.78;;;2.42;;
27517;SDS011;14962;52.482;13.142;2022-07-23T09:17:08;6.10;;;2.78;;
27517;SDS011;14962;52.482;13.142;2022-07-23T09:19:35;5.28;;;2.88;;
27517;SDS011;14962;52.482;13.142;2022-07-23T09:22:23;12.32;;;3.20;;
27517;SDS011;14962;52.482;13.142;2022-07-23T09:25:04;4.85;;;2.58;;
27517;SDS011;14962;52.482;13.142;2022-07-23T09:30:15;7.00;;;2.97;;
27517;SDS011;14962;52.482;13.142;2022-07-23T09:32:41;8.13;;;2.28;;
27517;SDS011;14962;52.482;13.142;2022-07-23T09:35:08;6.25;;;2.50;;
27517;SDS011;14962;52.482;13.142;2022-07-23T09:37:34;5.43;;;2.38;;
27517;SDS011;14962;52.482;13.142;2022-07-23T09:40:04;6.57;;;2.30;;
27517;SDS011;14962;52.482;13.142;2022-07-23T09:42:30;10.57;;;2.85;;
27517;SDS011;14962;52.482;13.142;2022-07-23T09:44:57;7.75;;;2.40;;
27517;SDS011;14962;52.482;13.142;2022-07-23T09:47:24;9.40;;;2.25;;
27517;SDS011;14962;52.482;13.142;2022-07-23T09:49:57;8.18;;;2.15;;
27517;SDS011;14962;52.482;13.142;2022-07-23T09:52:31;4.53;;;2.25;;
27517;SDS011;14962;52.482;13.142;2022-07-23T09:54:58;9.63;;;3.20;;
27517;SDS011;14962;52.482;13.142;2022-07-23T09:57:25;5.10;;;2.22;;
27517;SDS011;14962;52.482;13.142;2022-07-23T09:59:51;3.92;;;1.77;;
27517;SDS011;14962;52.482;13.142;2022-07-23T10:02:18;7.65;;;2.30;;
27517;SDS011;14962;52.482;13.142;2022-07-23T10:04:44;6.35;;;2.85;;
27517;SDS011;14962;52.482;13.142;2022-07-23T10:07:10;6.13;;;2.55;;
27517;SDS011;14962;52.482;13.142;2022-07-23T10:09:38;7.40;;;2.65;;
27517;SDS011;14962;52.482;13.142;2022-07-23T10:12:05;3.85;;;2.10;;
27517;SDS011;14962;52.482;13.142;2022-07-23T10:14:53;5.90;;;2.58;;
27517;SDS011;14962;52.482;13.142;2022-07-23T10:17:19;2.90;;;2.00;;
27517;SDS011;14962;52.482;13.142;2022-07-23T10:19:45;8.52;;;2.65;;
27517;SDS011;14962;52.482;13.142;2022-07-23T10:22:13;5.25;;;2.58;;
27517;SDS011;14962;52.482;13.142;2022-07-23T10:30:03;3.25;;;2.05;;
27517;SDS011;14962;52.482;13.142;2022-07-23T10:37:57;4.47;;;1.92;;
27517;SDS011;14962;52.482;13.142;2022-07-23T10:40:26;5.45;;;1.88;;
27517;SDS011;14962;52.482;13.142;2022-07-23T10:42:54;5.30;;;1.70;;
27517;SDS011;14962;52.482;13.142;2022-07-23T10:45:24;5.65;;;1.95;;
27517;SDS011;14962;52.482;13.142;2022-07-23T10:47:51;5.50;;;2.03;;
27517;SDS011;14962;52.482;13.142;2022-07-23T10:50:28;5.95;;;1.75;;
27517;SDS011;14962;52.482;13.142;2022-07-23T10:53:07;6.75;;;2.00;;
27517;SDS011;14962;52.482;13.142;2022-07-23T10:58:00;3.30;;;1.88;;
27517;SDS011;14962;52.482;13.142;2022-07-23T11:00:27;3.75;;;1.80;;
27517;SDS011;14962;52.482;13.142;2022-07-23T11:02:54;6.18;;;2.00;;
27517;SDS011;14962;52.482;13.142;2022-07-23T11:05:22;9.75;;;1.90;;
27517;SDS011;14962;52.482;13.142;2022-07-23T11:10:39;5.53;;;2.30;;
27517;SDS011;14962;52.482;13.142;2022-07-23T11:26:40;4.85;;;2.03;;
27517;SDS011;14962;52.482;13.142;2022-07-23T11:31:51;4.88;;;1.95;;
27517;SDS011;14962;52.482;13.142;2022-07-23T11:34:31;3.08;;;2.00;;
27517;SDS011;14962;52.482;13.142;2022-07-23T11:36:57;5.45;;;2.05;;
27517;SDS011;14962;52.482;13.142;2022-07-23T11:39:24;6.65;;;2.13;;
27517;SDS011;14962;52.482;13.142;2022-07-23T11:41:51;4.28;;;1.65;;
27517;SDS011;14962;52.482;13.142;2022-07-23T11:44:37;4.03;;;2.10;;
27517;SDS011;14962;52.482;13.142;2022-07-23T11:47:07;5.60;;;2.30;;
27517;SDS011;14962;52.482;13.142;2022-07-23T11:49:33;3.75;;;2.00;;
27517;SDS011;14962;52.482;13.142;2022-07-23T11:52:09;4.97;;;2.28;;
27517;SDS011;14962;52.482;13.142;2022-07-23T11:54:37;4.47;;;2.25;;
27517;SDS011;14962;52.482;13.142;2022-07-23T11:57:11;7.88;;;2.30;;
27517;SDS011;14962;52.482;13.142;2022-07-23T11:59:37;4.72;;;1.98;;
27517;SDS011;14962;52.482;13.142;2022-07-23T12:02:05;4.40;;;1.92;;
27517;SDS011;14962;52.482;13.142;2022-07-23T12:04:40;4.88;;;2.00;;
27517;SDS011;14962;52.482;13.142;2022-07-23T12:09:51;5.10;;;1.80;;
27517;SDS011;14962;52.482;13.142;2022-07-23T12:12:18;3.40;;;1.70;;
27517;SDS011;14962;52.482;13.142;2022-07-23T12:14:54;4.10;;;1.77;;
27517;SDS011;14962;52.482;13.142;2022-07-23T12:17:21;3.67;;;2.20;;
27517;SDS011;14962;52.482;13.142;2022-07-23T12:19:47;11.48;;;2.17;;
27517;SDS011;14962;52.482;13.142;2022-07-23T12:22:14;3.50;;;2.05;;
27517;SDS011;14962;52.482;13.142;2022-07-23T12:24:56;3.97;;;1.77;;
27517;SDS011;14962;52.482;13.142;2022-07-23T12:27:22;3.83;;;2.03;;
27517;SDS011;14962;52.482;13.142;2022-07-23T12:29:48;6.57;;;2.20;;
27517;SDS011;14962;52.482;13.142;2022-07-23T12:32:25;4.32;;;2.45;;
27517;SDS011;14962;52.482;13.142;2022-07-23T12:35:05;3.10;;;1.85;;
27517;SDS011;14962;52.482;13.142;2022-07-23T12:37:32;4.15;;;2.17;;
27517;SDS011;14962;52.482;13.142;2022-07-23T12:39:58;4.35;;;2.42;;
27517;SDS011;14962;52.482;13.142;2022-07-23T12:42:24;5.43;;;2.20;;
27517;SDS011;14962;52.482;13.142;2022-07-23T12:45:10;5.18;;;2.50;;
27517;SDS011;14962;52.482;13.142;2022-07-23T12:47:52;5.20;;;2.00;;
27517;SDS011;14962;52.482;13.142;2022-07-23T12:50:33;4.38;;;2.17;;
27517;SDS011;14962;52.482;13.142;2022-07-23T12:53:18;4.47;;;2.05;;
27517;SDS011;14962;52.482;13.142;2022-07-23T12:55:45;5.75;;;2.25;;
27517;SDS011;14962;52.482;13.142;2022-07-23T12:58:19;4.70;;;2.38;;
27517;SDS011;14962;52.482;13.142;2022-07-23T13:03:20;3.42;;;2.20;;
27517;SDS011;14962;52.482;13.142;2022-07-23T13:05:46;5.10;;;1.95;;
27517;SDS011;14962;52.482;13.142;2022-07-23T13:08:12;2.88;;;1.48;;
27517;SDS011;14962;52.482;13.142;2022-07-23T13:10:38;4.55;;;1.77;;
27517;SDS011;14962;52.482;13.142;2022-07-23T13:13:08;2.80;;;1.63;;
27517;SDS011;14962;52.482;13.142;2022-07-23T13:15:34;3.92;;;1.60;;
27517;SDS011;14962;52.482;13.142;2022-07-23T13:17:59;4.03;;;1.92;;
27517;SDS011;14962;52.482;13.142;2022-07-23T13:20:25;4.40;;;1.83;;
27517;SDS011;14962;52.482;13.142;2022-07-23T13:22:51;3.50;;;1.80;;
27517;SDS011;14962;52.482;13.142;2022-07-23T13:25:17;2.78;;;1.42;;
27517;SDS011;14962;52.482;13.142;2022-07-23T13:27:43;3.95;;;1.50;;
27517;SDS011;14962;52.482;13.142;2022-07-23T13:30:10;4.80;;;1.65;;
27517;SDS011;14962;52.482;13.142;2022-07-23T13:32:36;3.33;;;1.52;;
27517;SDS011;14962;52.482;13.142;2022-07-23T13:35:02;3.45;;;1.40;;
27517;SDS011;14962;52.482;13.142;2022-07-23T13:37:28;2.92;;;1.40;;
27517;SDS011;14962;52.482;13.142;2022-07-23T13:39:54;2.90;;;1.08;;
27517;SDS011;14962;52.482;13.142;2022-07-23T13:42:20;4.28;;;1.00;;
27517;SDS011;14962;52.482;13.142;2022-07-23T13:44:46;2.30;;;1.02;;
27517;SDS011;14962;52.482;13.142;2022-07-23T13:47:12;1.70;;;1.05;;
27517;SDS011;14962;52.482;13.142;2022-07-23T13:49:38;2.45;;;1.23;;
27517;SDS011;14962;52.482;13.142;2022-07-23T13:52:04;1.67;;;0.63;;
27517;SDS011;14962;52.482;13.142;2022-07-23T13:54:30;5.30;;;1.10;;
27517;SDS011;14962;52.482;13.142;2022-07-23T13:56:56;2.53;;;1.00;;
27517;SDS011;14962;52.482;13.142;2022-07-23T13:59:22;2.60;;;0.88;;
27517;SDS011;14962;52.482;13.142;2022-07-23T14:01:48;1.95;;;0.90;;
27517;SDS011;14962;52.482;13.142;2022-07-23T14:04:14;2.08;;;0.57;;
27517;SDS011;14962;52.482;13.142;2022-07-23T14:06:40;4.70;;;0.93;;
27517;SDS011;14962;52.482;13.142;2022-07-23T14:09:06;1.80;;;0.80;;
27517;SDS011;14962;52.482;13.142;2022-07-23T14:11:32;3.28;;;0.77;;
27517;SDS011;14962;52.482;13.142;2022-07-23T14:13:58;3.35;;;0.70;;
27517;SDS011;14962;52.482;13.142;2022-07-23T14:16:25;4.45;;;0.75;;
27517;SDS011;14962;52.482;13.142;2022-07-23T14:18:51;2.08;;;0.80;;
27517;SDS011;14962;52.482;13.142;2022-07-23T14:21:18;5.35;;;0.93;;
27517;SDS011;14962;52.482;13.142;2022-07-23T14:23:43;3.40;;;0.70;;
27517;SDS011;14962;52.482;13.142;2022-07-23T14:26:09;3.95;;;0.60;;
27517;SDS011;14962;52.482;13.142;2022-07-23T14:28:35;1.83;;;0.70;;
27517;SDS011;14962;52.482;13.142;2022-07-23T14:31:02;3.53;;;1.05;;
27517;SDS011;14962;52.482;13.142;2022-07-23T14:33:28;5.43;;;1.00;;
27517;SDS011;14962;52.482;13.142;2022-07-23T14:35:54;3.63;;;0.90;;
27517;SDS011;14962;52.482;13.142;2022-07-23T14:38:20;2.85;;;0.68;;
27517;SDS011;14962;52.482;13.142;2022-07-23T14:40:45;2.40;;;0.60;;
27517;SDS011;14962;52.482;13.142;2022-07-23T14:43:11;1.75;;;0.50;;
27517;SDS011;14962;52.482;13.142;2022-07-23T14:45:38;1.42;;;0.50;;
27517;SDS011;14962;52.482;13.142;2022-07-23T14:48:04;1.48;;;0.40;;
27517;SDS011;14962;52.482;13.142;2022-07-23T14:50:30;1.38;;;0.80;;
27517;SDS011;14962;52.482;13.142;2022-07-23T14:52:56;2.13;;;0.70;;
27517;SDS011;14962;52.482;13.142;2022-07-23T14:55:22;1.30;;;0.68;;
27517;SDS011;14962;52.482;13.142;2022-07-23T14:57:48;0.98;;;0.68;;
27517;SDS011;14962;52.482;13.142;2022-07-23T15:00:14;2.72;;;0.75;;
27517;SDS011;14962;52.482;13.142;2022-07-23T15:02:41;1.65;;;0.70;;
27517;SDS011;14962;52.482;13.142;2022-07-23T15:05:07;1.95;;;0.80;;
27517;SDS011;14962;52.482;13.142;2022-07-23T15:07:33;3.10;;;0.52;;
27517;SDS011;14962;52.482;13.142;2022-07-23T15:09:59;1.27;;;0.88;;
27517;SDS011;14962;52.482;13.142;2022-07-23T15:12:25;1.50;;;0.80;;
27517;SDS011;14962;52.482;13.142;2022-07-23T15:14:51;1.83;;;0.77;;